createdAt,value
2022-09-23T00:00:12.631Z,101854.13
2022-09-23T00:00:44.890Z,101864.00
2022-09-23T00:01:16.599Z,101864.34
2022-09-23T00:01:48.190Z,101865.47
2022-09-23T00:02:20.809Z,101867.41
2022-09-23T00:02:52.516Z,101862.66
2022-09-23T00:03:23.883Z,101863.09
2022-09-23T00:03:56.298Z,101858.78
2022-09-23T00:04:27.797Z,101865.81
2022-09-23T00:04:59.138Z,101865.03
2022-09-23T00:05:33.487Z,101862.66
2022-09-23T00:06:07.609Z,101865.03
2022-09-23T00:06:39.764Z,101864.22
2022-09-23T00:07:11.125Z,101864.56
2022-09-23T00:07:42.444Z,101868.09
2022-09-23T00:08:13.796Z,101854.06
2022-09-23T00:08:45.252Z,101861.84
2022-09-23T00:09:16.582Z,101863.03
2022-09-23T00:09:47.899Z,101852.81
2022-09-23T00:10:19.248Z,101860.63
2022-09-23T00:10:50.907Z,101857.47
2022-09-23T00:11:25.199Z,101864.16
2022-09-23T00:11:56.583Z,101851.91
2022-09-23T00:12:28.118Z,101865.97
2022-09-23T00:12:59.644Z,101851.13
2022-09-23T00:13:30.995Z,101864.06
2022-09-23T00:14:02.438Z,101852.25
2022-09-23T00:14:33.821Z,101865.53
2022-09-23T00:15:05.662Z,101863.16
2022-09-23T00:15:40.109Z,101854.63
2022-09-23T00:16:14.856Z,101854.63
2022-09-23T00:16:46.256Z,101865.53
2022-09-23T00:17:17.818Z,101867.00
2022-09-23T00:17:49.174Z,101865.78
2022-09-23T00:18:21.010Z,101863.50
2022-09-23T00:18:52.488Z,101859.97
2022-09-23T00:19:23.825Z,101855.22
2022-09-23T00:19:55.344Z,101842.28
2022-09-23T00:20:26.735Z,101850.22
2022-09-23T00:20:58.140Z,101847.72
2022-09-23T00:21:29.883Z,101850.22
2022-09-23T00:22:01.234Z,101847.84
2022-09-23T00:22:33.593Z,101859.53
2022-09-23T00:23:04.957Z,101842.75
2022-09-23T00:23:36.686Z,101849.78
2022-09-23T00:24:08.531Z,101854.88
2022-09-23T00:24:40.163Z,101850.47
2022-09-23T00:25:12.017Z,101851.81
2022-09-23T00:25:43.450Z,101847.38
2022-09-23T00:26:16.848Z,101842.28
2022-09-23T00:26:48.246Z,101848.53
2022-09-23T00:27:21.425Z,101844.66
2022-09-23T00:27:53.837Z,101847.84
2022-09-23T00:28:25.202Z,101848.19
2022-09-23T00:28:56.615Z,101843.53
2022-09-23T00:29:27.951Z,101838.44
2022-09-23T00:29:59.882Z,101853.63
2022-09-23T00:30:32.280Z,101842.41
2022-09-23T00:31:10.034Z,101840.81
2022-09-23T00:31:41.955Z,101839.56
2022-09-23T00:32:13.801Z,101837.19
2022-09-23T00:32:45.158Z,101835.25
2022-09-23T00:33:16.567Z,101841.06
2022-09-23T00:33:52.935Z,101835.97
2022-09-23T00:34:24.428Z,101832.91
2022-09-23T00:34:56.010Z,101838.78
2022-09-23T00:35:27.582Z,101839.13
2022-09-23T00:36:03.883Z,101843.88
2022-09-23T00:36:35.288Z,101834.03
2022-09-23T00:37:06.666Z,101840.69
2022-09-23T00:37:38.270Z,101836.75
2022-09-23T00:38:09.853Z,101838.25
2022-09-23T00:38:41.964Z,101846.94
2022-09-23T00:39:13.907Z,101846.16
2022-09-23T00:39:46.224Z,101844.13
2022-09-23T00:40:17.791Z,101833.66
2022-09-23T00:40:49.789Z,101837.56
2022-09-23T00:41:21.699Z,101845.72
2022-09-23T00:41:54.135Z,101832.13
2022-09-23T00:42:25.572Z,101840.97
2022-09-23T00:42:56.999Z,101840.19
2022-09-23T00:43:49.026Z,101832.47
2022-09-23T00:44:41.765Z,101834.38
2022-09-23T00:45:13.360Z,101826.09
2022-09-23T00:45:51.176Z,101828.84
2022-09-23T00:46:28.563Z,101836.22
2022-09-23T00:47:00.177Z,101823.72
2022-09-23T00:47:38.897Z,101834.16
2022-09-23T00:48:17.542Z,101833.38
2022-09-23T00:48:55.527Z,101839.97
2022-09-23T00:49:30.486Z,101831.78
2022-09-23T00:50:21.104Z,101833.72
2022-09-23T00:50:54.741Z,101834.41
2022-09-23T00:51:32.679Z,101836.34
2022-09-23T00:52:12.703Z,101829.66
2022-09-23T00:52:44.808Z,101839.06
2022-09-23T00:53:21.312Z,101829.75
2022-09-23T00:53:52.952Z,101832.03
2022-09-23T00:54:27.599Z,101830.78
2022-09-23T00:55:02.586Z,101824.56
2022-09-23T00:55:43.042Z,101824.19
2022-09-23T00:56:15.257Z,101828.84
2022-09-23T00:56:46.624Z,101818.34
2022-09-23T00:57:20.125Z,101816.31
2022-09-23T00:57:55.648Z,101828.44
2022-09-23T00:58:31.700Z,101819.47
2022-09-23T00:59:03.464Z,101817.44
2022-09-23T00:59:36.054Z,101816.31
2022-09-23T01:00:08.473Z,101826.94
2022-09-23T01:00:39.849Z,101819.47
2022-09-23T01:01:14.334Z,101816.41
2022-09-23T01:01:46.366Z,101823.34
2022-09-23T01:02:21.028Z,101821.06
2022-09-23T01:02:52.706Z,101823.41
2022-09-23T01:03:24.157Z,101817.88
2022-09-23T01:03:56.926Z,101818.69
2022-09-23T01:04:29.750Z,101826.50
2022-09-23T01:05:03.499Z,101824.56
2022-09-23T01:05:36.564Z,101814.72
2022-09-23T01:06:08.842Z,101821.06
2022-09-23T01:06:40.868Z,101810.06
2022-09-23T01:07:13.617Z,101819.47
2022-09-23T01:07:46.111Z,101827.63
2022-09-23T01:08:19.074Z,101811.88
2022-09-23T01:08:51.431Z,101813.81
2022-09-23T01:09:24.216Z,101822.09
2022-09-23T01:09:57.480Z,101822.88
2022-09-23T01:10:42.331Z,101815.75
2022-09-23T01:11:31.768Z,101822.09
2022-09-23T01:12:41.105Z,101820.84
2022-09-23T01:13:26.618Z,101821.97
2022-09-23T01:14:07.629Z,101823.13
2022-09-23T01:15:05.596Z,101824.25
2022-09-23T01:15:49.793Z,101823.00
2022-09-23T01:16:39.681Z,101827.66
2022-09-23T01:17:24.408Z,101823.34
2022-09-23T01:18:08.220Z,101820.97
2022-09-23T01:18:49.255Z,101829.94
2022-09-23T01:19:38.190Z,101824.41
2022-09-23T01:20:37.306Z,101825.16
2022-09-23T01:21:23.800Z,101819.28
2022-09-23T01:22:09.120Z,101812.28
2022-09-23T01:23:02.096Z,101818.06
2022-09-23T01:23:36.131Z,101822.69
2022-09-23T01:24:19.563Z,101821.91
2022-09-23T01:25:15.663Z,101817.94
2022-09-23T01:26:05.627Z,101817.16
2022-09-23T01:27:04.549Z,101815.56
2022-09-23T01:28:07.694Z,101815.91
2022-09-23T01:29:36.021Z,101808.88
2022-09-23T01:30:16.753Z,101816.59
2022-09-23T01:31:04.814Z,101813.41
2022-09-23T01:31:58.635Z,101821.56
2022-09-23T01:32:32.549Z,101815.34
2022-09-23T01:33:20.002Z,101818.06
2022-09-23T01:34:09.607Z,101818.41
2022-09-23T01:35:09.946Z,101816.03
2022-09-23T01:36:29.100Z,101814.47
2022-09-23T01:37:32.697Z,101808.56
2022-09-23T01:38:29.219Z,101815.13
2022-09-23T01:39:10.669Z,101808.91
2022-09-23T01:39:51.132Z,101800.75
2022-09-23T01:40:26.215Z,101803.47
2022-09-23T01:41:20.242Z,101807.31
2022-09-23T01:42:03.023Z,101800.28
2022-09-23T01:42:54.284Z,101804.16
2022-09-23T01:43:38.587Z,101799.84
2022-09-23T01:44:18.228Z,101799.03
2022-09-23T01:44:54.941Z,101804.81
2022-09-23T01:45:36.013Z,101793.03
2022-09-23T01:46:19.518Z,101796.88
2022-09-23T01:46:58.797Z,101800.84
2022-09-23T01:47:35.668Z,101797.34
2022-09-23T01:48:18.242Z,101800.84
2022-09-23T01:48:56.531Z,101794.63
2022-09-23T01:49:39.630Z,101800.84
2022-09-23T01:50:42.781Z,101797.34
2022-09-23T01:51:23.852Z,101798.13
2022-09-23T01:52:11.441Z,101800.06
2022-09-23T01:52:47.229Z,101805.06
2022-09-23T01:53:39.160Z,101805.84
2022-09-23T01:54:26.004Z,101799.16
2022-09-23T01:55:13.967Z,101794.84
2022-09-23T01:55:50.644Z,101792.50
2022-09-23T01:56:35.432Z,101803.00
2022-09-23T01:57:16.191Z,101803.00
2022-09-23T01:57:56.499Z,101800.66
2022-09-23T01:59:01.618Z,101796.34
2022-09-23T01:59:38.231Z,101793.63
2022-09-23T02:00:14.122Z,101797.16
2022-09-23T02:01:07.301Z,101798.28
2022-09-23T02:01:52.088Z,101801.78
2022-09-23T02:02:32.165Z,101797.94
2022-09-23T02:03:17.030Z,101794.44
2022-09-23T02:03:55.781Z,101798.28
2022-09-23T02:04:33.461Z,101797.47
2022-09-23T02:05:14.800Z,101793.97
2022-09-23T02:05:57.050Z,101793.19
2022-09-23T02:06:35.337Z,101795.09
2022-09-23T02:07:15.088Z,101784.91
2022-09-23T02:08:00.460Z,101790.47
2022-09-23T02:08:37.989Z,101793.50
2022-09-23T02:09:16.588Z,101790.78
2022-09-23T02:09:56.124Z,101797.03
2022-09-23T02:10:35.951Z,101793.50
2022-09-23T02:11:10.496Z,101791.59
2022-09-23T02:11:46.032Z,101789.66
2022-09-23T02:12:21.120Z,101795.44
2022-09-23T02:12:58.049Z,101793.97
2022-09-23T02:13:41.979Z,101787.75
2022-09-23T02:14:19.026Z,101786.94
2022-09-23T02:14:57.254Z,101791.59
2022-09-23T02:15:44.813Z,101782.63
2022-09-23T02:16:26.473Z,101786.16
2022-09-23T02:17:03.431Z,101784.09
2022-09-23T02:17:43.904Z,101784.09
2022-09-23T02:18:21.866Z,101782.19
2022-09-23T02:19:00.399Z,101785.34
2022-09-23T02:19:52.596Z,101785.34
2022-09-23T02:20:30.594Z,101785.69
2022-09-23T02:21:07.092Z,101793.50
2022-09-23T02:21:43.112Z,101784.56
2022-09-23T02:22:26.446Z,101788.06
2022-09-23T02:23:19.374Z,101784.09
2022-09-23T02:24:17.660Z,101777.09
2022-09-23T02:24:49.450Z,101784.78
2022-09-23T02:25:26.497Z,101779.34
2022-09-23T02:26:35.248Z,101776.97
2022-09-23T02:27:32.353Z,101778.09
2022-09-23T02:28:17.283Z,101764.84
2022-09-23T02:29:01.162Z,101772.66
2022-09-23T02:29:48.848Z,101775.25
2022-09-23T02:30:27.072Z,101771.41
2022-09-23T02:31:08.722Z,101763.25
2022-09-23T02:32:12.564Z,101765.97
2022-09-23T02:32:43.913Z,101763.25
2022-09-23T02:33:25.387Z,101756.22
2022-09-23T02:34:12.757Z,101770.63
2022-09-23T02:34:52.808Z,101756.22
2022-09-23T02:35:33.426Z,101760.88
2022-09-23T02:36:17.908Z,101755.44
2022-09-23T02:37:06.661Z,101753.09
2022-09-23T02:38:04.051Z,101762.00
2022-09-23T02:38:44.543Z,101755.81
2022-09-23T02:39:19.562Z,101749.91
2022-09-23T02:39:50.901Z,101751.13
2022-09-23T02:40:38.499Z,101748.78
2022-09-23T02:41:20.372Z,101755.00
2022-09-23T02:42:02.424Z,101749.13
2022-09-23T02:42:45.765Z,101753.78
2022-09-23T02:43:35.363Z,101743.22
2022-09-23T02:44:10.238Z,101746.28
2022-09-23T02:44:41.849Z,101746.63
2022-09-23T02:45:13.446Z,101745.38
2022-09-23T02:45:45.200Z,101749.69
2022-09-23T02:46:17.705Z,101743.00
2022-09-23T02:46:53.057Z,101755.47
2022-09-23T02:47:31.242Z,101748.44
2022-09-23T02:48:07.697Z,101745.38
2022-09-23T02:49:21.411Z,101748.09
2022-09-23T02:49:53.480Z,101751.63
2022-09-23T02:50:25.209Z,101751.16
2022-09-23T02:50:57.841Z,101742.22
2022-09-23T02:51:29.367Z,101745.72
2022-09-23T02:52:04.720Z,101751.16
2022-09-23T02:52:39.194Z,101746.84
2022-09-23T02:53:10.682Z,101737.09
2022-09-23T02:53:43.020Z,101735.53
2022-09-23T02:54:18.497Z,101740.97
2022-09-23T02:54:49.982Z,101730.75
2022-09-23T02:55:25.177Z,101734.72
2022-09-23T02:55:56.729Z,101736.31
2022-09-23T02:56:28.650Z,101732.69
2022-09-23T02:57:02.708Z,101734.63
2022-09-23T02:57:34.827Z,101730.34
2022-09-23T02:58:06.267Z,101735.06
2022-09-23T02:58:37.607Z,101733.84
2022-09-23T02:59:09.982Z,101742.44
2022-09-23T02:59:41.710Z,101737.34
2022-09-23T03:00:13.810Z,101737.44
2022-09-23T03:01:06.342Z,101742.09
2022-09-23T03:02:13.928Z,101738.91
2022-09-23T03:03:20.351Z,101729.53
2022-09-23T03:04:18.951Z,101742.00
2022-09-23T03:05:03.819Z,101740.75
2022-09-23T03:05:42.453Z,101741.09
2022-09-23T03:06:39.732Z,101741.09
2022-09-23T03:07:19.476Z,101734.41
2022-09-23T03:08:16.588Z,101734.41
2022-09-23T03:08:57.520Z,101738.25
2022-09-23T03:09:33.226Z,101736.66
2022-09-23T03:10:15.377Z,101731.91
2022-09-23T03:11:08.245Z,101731.13
2022-09-23T03:11:44.755Z,101729.19
2022-09-23T03:12:47.810Z,101733.84
2022-09-23T03:13:29.381Z,101733.38
2022-09-23T03:14:04.984Z,101733.38
2022-09-23T03:14:44.258Z,101737.53
2022-09-23T03:15:18.956Z,101734.47
2022-09-23T03:16:02.607Z,101731.75
2022-09-23T03:16:47.967Z,101724.41
2022-09-23T03:17:34.853Z,101730.97
2022-09-23T03:18:47.344Z,101726.31
2022-09-23T03:19:36.541Z,101722.34
2022-09-23T03:20:13.956Z,101721.56
2022-09-23T03:20:50.447Z,101726.22
2022-09-23T03:22:02.999Z,101727.78
2022-09-23T03:22:40.563Z,101721.13
2022-09-23T03:23:15.145Z,101723.84
2022-09-23T03:23:48.219Z,101723.06
2022-09-23T03:24:21.995Z,101720.69
2022-09-23T03:24:59.831Z,101712.41
2022-09-23T03:25:35.746Z,101719.91
2022-09-23T03:26:12.607Z,101722.94
2022-09-23T03:26:47.146Z,101710.81
2022-09-23T03:27:23.894Z,101719.44
2022-09-23T03:27:58.817Z,101722.50
2022-09-23T03:28:31.155Z,101714.00
2022-09-23T03:29:05.153Z,101730.41
2022-09-23T03:29:37.032Z,101720.56
2022-09-23T03:30:09.485Z,101731.22
2022-09-23T03:30:43.490Z,101723.84
2022-09-23T03:31:15.285Z,101717.84
2022-09-23T03:31:47.368Z,101723.84
2022-09-23T03:32:23.343Z,101720.34
2022-09-23T03:32:57.018Z,101721.94
2022-09-23T03:33:29.065Z,101716.72
2022-09-23T03:34:03.293Z,101722.28
2022-09-23T03:34:37.485Z,101712.88
2022-09-23T03:35:09.130Z,101718.75
2022-09-23T03:36:12.952Z,101723.06
2022-09-23T03:37:00.681Z,101721.81
2022-09-23T03:38:11.150Z,101721.81
2022-09-23T03:38:50.057Z,101720.22
2022-09-23T03:39:31.608Z,101721.34
2022-09-23T03:40:20.526Z,101723.28
2022-09-23T03:40:55.542Z,101713.22
2022-09-23T03:41:32.868Z,101724.88
2022-09-23T03:42:12.491Z,101715.13
2022-09-23T03:42:43.822Z,101711.97
2022-09-23T03:43:15.984Z,101716.25
2022-09-23T03:43:47.725Z,101709.69
2022-09-23T03:44:20.864Z,101713.22
2022-09-23T03:44:54.374Z,101712.06
2022-09-23T03:45:31.823Z,101717.06
2022-09-23T03:46:03.301Z,101720.22
2022-09-23T03:46:36.008Z,101711.28
2022-09-23T03:47:07.597Z,101706.66
2022-09-23T03:47:39.326Z,101714.78
2022-09-23T03:48:10.892Z,101711.63
2022-09-23T03:48:42.418Z,101712.06
2022-09-23T03:49:24.235Z,101719.91
2022-09-23T03:49:56.910Z,101707.78
2022-09-23T03:50:28.952Z,101708.22
2022-09-23T03:51:17.751Z,101709.03
2022-09-23T03:51:49.105Z,101710.94
2022-09-23T03:52:22.968Z,101711.75
2022-09-23T03:52:54.324Z,101710.94
2022-09-23T03:53:25.767Z,101703.13
2022-09-23T03:53:57.438Z,101704.38
2022-09-23T03:54:29.917Z,101702.00
2022-09-23T03:55:01.385Z,101692.59
2022-09-23T03:55:34.713Z,101700.88
2022-09-23T03:56:06.048Z,101695.31
2022-09-23T03:56:37.731Z,101691.81
2022-09-23T03:57:11.524Z,101703.94
2022-09-23T03:57:43.255Z,101700.75
2022-09-23T03:58:14.619Z,101706.31
2022-09-23T03:58:46.471Z,101703.59
2022-09-23T03:59:17.840Z,101704.03
2022-09-23T03:59:53.048Z,101708.69
2022-09-23T04:00:24.362Z,101693.97
2022-09-23T04:00:57.665Z,101699.75
2022-09-23T04:01:29.642Z,101693.19
2022-09-23T04:02:01.765Z,101700.88
2022-09-23T04:02:33.797Z,101700.19
2022-09-23T04:03:10.934Z,101699.03
2022-09-23T04:03:43.378Z,101692.03
2022-09-23T04:04:14.920Z,101700.19
2022-09-23T04:04:46.362Z,101695.56
2022-09-23T04:05:18.166Z,101702.53
2022-09-23T04:05:49.588Z,101701.75
2022-09-23T04:06:21.195Z,101699.03
2022-09-23T04:06:52.544Z,101690.47
2022-09-23T04:07:23.955Z,101687.28
2022-09-23T04:07:55.488Z,101699.03
2022-09-23T04:08:27.266Z,101689.31
2022-09-23T04:08:58.884Z,101676.09
2022-09-23T04:09:30.601Z,101697.09
2022-09-23T04:10:02.027Z,101692.47
2022-09-23T04:10:33.387Z,101694.41
2022-09-23T04:11:05.055Z,101689.31
2022-09-23T04:11:37.377Z,101694.41
2022-09-23T04:12:13.098Z,101687.81
2022-09-23T04:12:44.530Z,101692.84
2022-09-23T04:13:16.210Z,101690.47
2022-09-23T04:13:47.582Z,101684.69
2022-09-23T04:14:20.585Z,101691.34
2022-09-23T04:14:51.961Z,101680.72
2022-09-23T04:15:24.880Z,101689.31
2022-09-23T04:15:56.525Z,101692.03
2022-09-23T04:16:28.005Z,101692.47
2022-09-23T04:16:59.453Z,101694.06
2022-09-23T04:17:30.780Z,101688.63
2022-09-23T04:18:02.103Z,101681.59
2022-09-23T04:18:33.481Z,101694.84
2022-09-23T04:19:05.171Z,101677.22
2022-09-23T04:19:37.156Z,101694.06
2022-09-23T04:20:09.176Z,101685.38
2022-09-23T04:20:40.697Z,101687.81
2022-09-23T04:21:12.089Z,101687.81
2022-09-23T04:21:44.430Z,101687.75
2022-09-23T04:22:15.765Z,101689.75
2022-09-23T04:22:47.137Z,101691.34
2022-09-23T04:23:18.455Z,101692.13
2022-09-23T04:23:50.094Z,101687.75
2022-09-23T04:24:22.166Z,101690.53
2022-09-23T04:24:53.717Z,101690.13
2022-09-23T04:25:25.054Z,101692.47
2022-09-23T04:25:56.464Z,101701.88
2022-09-23T04:26:27.814Z,101687.41
2022-09-23T04:26:59.747Z,101700.28
2022-09-23T04:27:35.476Z,101695.97
2022-09-23T04:28:08.934Z,101690.88
2022-09-23T04:28:40.680Z,101691.00
2022-09-23T04:29:12.070Z,101693.25
2022-09-23T04:29:43.410Z,101699.50
2022-09-23T04:30:14.906Z,101691.78
2022-09-23T04:30:47.223Z,101691.69
2022-09-23T04:31:18.632Z,101688.97
2022-09-23T04:31:51.129Z,101695.66
2022-09-23T04:32:22.613Z,101689.06
2022-09-23T04:32:54.175Z,101688.63
2022-09-23T04:33:25.718Z,101690.53
2022-09-23T04:33:57.289Z,101687.50
2022-09-23T04:34:28.627Z,101691.78
2022-09-23T04:35:00.200Z,101682.84
2022-09-23T04:35:31.554Z,101694.19
2022-09-23T04:36:02.880Z,101686.34
2022-09-23T04:36:34.808Z,101683.97
2022-09-23T04:37:06.143Z,101680.13
2022-09-23T04:37:37.470Z,101684.31
2022-09-23T04:38:12.067Z,101691.78
2022-09-23T04:38:45.052Z,101687.97
2022-09-23T04:39:17.129Z,101682.53
2022-09-23T04:39:48.497Z,101679.34
2022-09-23T04:40:19.890Z,101678.22
2022-09-23T04:40:51.423Z,101679.69
2022-09-23T04:41:23.124Z,101676.63
2022-09-23T04:41:54.539Z,101680.47
2022-09-23T04:42:29.367Z,101687.63
2022-09-23T04:43:00.725Z,101675.81
2022-09-23T04:43:32.091Z,101683.34
2022-09-23T04:44:04.209Z,101684.13
2022-09-23T04:44:35.679Z,101681.41
2022-09-23T04:45:07.648Z,101684.13
2022-09-23T04:45:39.422Z,101688.44
2022-09-23T04:46:13.542Z,101682.53
2022-09-23T04:46:48.221Z,101682.19
2022-09-23T04:47:19.739Z,101679.16
2022-09-23T04:47:51.400Z,101677.22
2022-09-23T04:48:22.721Z,101678.00
2022-09-23T04:48:54.237Z,101677.56
2022-09-23T04:49:26.166Z,101683.91
2022-09-23T04:49:59.867Z,101677.69
2022-09-23T04:50:33.675Z,101679.59
2022-09-23T04:51:07.285Z,101680.38
2022-09-23T04:51:43.220Z,101683.91
2022-09-23T04:52:14.547Z,101678.81
2022-09-23T04:52:46.063Z,101692.06
2022-09-23T04:53:18.988Z,101689.34
2022-09-23T04:53:51.995Z,101677.56
2022-09-23T04:54:23.339Z,101683.09
2022-09-23T04:54:54.655Z,101684.25
2022-09-23T04:55:26.058Z,101684.59
2022-09-23T04:56:05.692Z,101688.66
2022-09-23T04:56:37.216Z,101686.75
2022-09-23T04:57:11.009Z,101690.25
2022-09-23T04:57:42.333Z,101679.25
2022-09-23T04:58:13.677Z,101678.91
2022-09-23T04:58:45.980Z,101685.94
2022-09-23T04:59:17.316Z,101680.06
2022-09-23T04:59:48.659Z,101691.03
2022-09-23T05:00:20.062Z,101687.53
2022-09-23T05:00:51.656Z,101680.50
2022-09-23T05:01:27.150Z,101680.50
2022-09-23T05:01:58.780Z,101687.19
2022-09-23T05:02:30.882Z,101684.13
2022-09-23T05:03:02.325Z,101684.47
2022-09-23T05:03:35.655Z,101687.66
2022-09-23T05:04:13.437Z,101683.69
2022-09-23T05:04:45.002Z,101684.81
2022-09-23T05:05:23.235Z,101680.63
2022-09-23T05:05:59.847Z,101676.66
2022-09-23T05:06:36.878Z,101672.00
2022-09-23T05:07:08.233Z,101681.41
2022-09-23T05:07:40.336Z,101674.81
2022-09-23T05:08:11.974Z,101683.75
2022-09-23T05:08:57.365Z,101680.72
2022-09-23T05:09:28.718Z,101681.50
2022-09-23T05:10:00.048Z,101675.59
2022-09-23T05:10:31.391Z,101674.13
2022-09-23T05:11:07.467Z,101678.44
2022-09-23T05:11:38.794Z,101670.97
2022-09-23T05:12:10.221Z,101669.84
2022-09-23T05:12:41.586Z,101673.00
2022-09-23T05:13:12.937Z,101674.94
2022-09-23T05:13:47.565Z,101665.97
2022-09-23T05:14:19.024Z,101668.69
2022-09-23T05:14:50.799Z,101664.41
2022-09-23T05:15:22.187Z,101674.59
2022-09-23T05:16:06.571Z,101676.97
2022-09-23T05:16:38.034Z,101679.34
2022-09-23T05:17:09.364Z,101676.97
2022-09-23T05:17:40.738Z,101668.81
2022-09-23T05:18:12.075Z,101676.97
2022-09-23T05:18:44.479Z,101684.00
2022-09-23T05:19:15.838Z,101676.19
2022-09-23T05:19:48.739Z,101676.19
2022-09-23T05:20:20.641Z,101673.91
2022-09-23T05:20:55.557Z,101672.78
2022-09-23T05:21:30.158Z,101673.13
2022-09-23T05:22:01.505Z,101671.66
2022-09-23T05:22:32.872Z,101674.34
2022-09-23T05:23:04.242Z,101681.72
2022-09-23T05:23:36.022Z,101671.31
2022-09-23T05:24:07.389Z,101668.13
2022-09-23T05:24:38.735Z,101674.81
2022-09-23T05:25:10.154Z,101672.44
2022-09-23T05:25:42.411Z,101665.41
2022-09-23T05:26:14.016Z,101667.00
2022-09-23T05:26:45.645Z,101672.53
2022-09-23T05:27:16.989Z,101676.06
2022-09-23T05:27:48.297Z,101670.97
2022-09-23T05:28:19.938Z,101674.13
2022-09-23T05:28:51.948Z,101674.81
2022-09-23T05:29:23.269Z,101665.41
2022-09-23T05:29:55.009Z,101663.94
2022-09-23T05:30:26.543Z,101677.19
2022-09-23T05:31:06.139Z,101672.22
2022-09-23T05:31:37.527Z,101667.09
2022-09-23T05:32:09.869Z,101674.13
2022-09-23T05:32:41.331Z,101673.00
2022-09-23T05:33:13.113Z,101674.13
2022-09-23T05:33:47.341Z,101671.88
2022-09-23T05:34:18.651Z,101675.72
2022-09-23T05:34:50.009Z,101681.22
2022-09-23T05:35:21.525Z,101673.78
2022-09-23T05:35:53.392Z,101677.72
2022-09-23T05:36:26.093Z,101680.09
2022-09-23T05:36:58.298Z,101679.69
2022-09-23T05:37:29.668Z,101674.13
2022-09-23T05:38:00.998Z,101686.34
2022-09-23T05:38:33.045Z,101678.97
2022-09-23T05:39:04.819Z,101683.16
2022-09-23T05:39:36.630Z,101681.34
2022-09-23T05:40:08.358Z,101682.81
2022-09-23T05:40:39.949Z,101682.47
2022-09-23T05:41:13.598Z,101681.34
2022-09-23T05:41:45.721Z,101688.38
2022-09-23T05:42:20.895Z,101675.47
2022-09-23T05:42:52.487Z,101684.50
2022-09-23T05:43:24.785Z,101679.88
2022-09-23T05:43:56.794Z,101686.09
2022-09-23T05:44:28.229Z,101687.25
2022-09-23T05:44:59.627Z,101685.31
2022-09-23T05:45:32.004Z,101673.97
2022-09-23T05:46:08.185Z,101678.63
2022-09-23T05:46:39.846Z,101679.41
2022-09-23T05:47:11.238Z,101683.38
2022-09-23T05:47:44.017Z,101684.50
2022-09-23T05:48:15.345Z,101684.19
2022-09-23T05:48:47.431Z,101687.25
2022-09-23T05:49:18.768Z,101682.25
2022-09-23T05:49:59.566Z,101686.56
2022-09-23T05:50:31.632Z,101682.69
2022-09-23T05:51:03.832Z,101685.41
2022-09-23T05:51:35.829Z,101687.00
2022-09-23T05:52:07.281Z,101687.00
2022-09-23T05:52:38.952Z,101687.00
2022-09-23T05:53:10.262Z,101685.88
2022-09-23T05:53:44.779Z,101687.47
2022-09-23T05:54:16.101Z,101684.75
2022-09-23T05:54:47.463Z,101683.16
2022-09-23T05:55:18.874Z,101683.16
2022-09-23T05:55:50.270Z,101684.63
2022-09-23T05:56:24.352Z,101678.84
2022-09-23T05:56:55.730Z,101682.34
2022-09-23T05:57:27.205Z,101675.00
2022-09-23T05:57:58.634Z,101673.06
2022-09-23T05:58:30.145Z,101682.34
2022-09-23T05:59:02.353Z,101683.25
2022-09-23T05:59:33.796Z,101677.47
2022-09-23T06:00:05.863Z,101678.63
2022-09-23T06:00:39.930Z,101681.41
2022-09-23T06:01:14.102Z,101679.84
2022-09-23T06:01:45.528Z,101686.84
2022-09-23T06:02:17.369Z,101681.00
2022-09-23T06:02:49.226Z,101685.72
2022-09-23T06:03:20.968Z,101686.84
2022-09-23T06:03:56.617Z,101690.81
2022-09-23T06:04:27.952Z,101687.31
2022-09-23T06:04:59.265Z,101686.16
2022-09-23T06:05:31.131Z,101689.69
2022-09-23T06:06:02.498Z,101688.88
2022-09-23T06:06:36.725Z,101690.13
2022-09-23T06:07:08.577Z,101692.50
2022-09-23T06:07:39.911Z,101688.19
2022-09-23T06:08:11.739Z,101688.66
2022-09-23T06:08:43.469Z,101689.78
2022-09-23T06:09:15.069Z,101680.72
2022-09-23T06:09:46.494Z,101677.22
2022-09-23T06:10:17.909Z,101688.19
2022-09-23T06:10:53.540Z,101694.53
2022-09-23T06:11:26.741Z,101691.81
2022-09-23T06:11:58.067Z,101678.13
2022-09-23T06:12:29.409Z,101690.25
2022-09-23T06:13:00.758Z,101687.41
2022-09-23T06:13:32.139Z,101685.94
2022-09-23T06:14:04.182Z,101691.47
2022-09-23T06:14:36.358Z,101689.44
2022-09-23T06:15:08.109Z,101688.41
2022-09-23T06:15:39.541Z,101678.56
2022-09-23T06:16:14.085Z,101692.72
2022-09-23T06:16:45.549Z,101688.88
2022-09-23T06:17:16.887Z,101682.97
2022-09-23T06:17:51.059Z,101689.22
2022-09-23T06:18:22.577Z,101686.16
2022-09-23T06:18:54.217Z,101692.03
2022-09-23T06:19:25.549Z,101688.06
2022-09-23T06:19:56.937Z,101684.22
2022-09-23T06:20:28.525Z,101691.66
2022-09-23T06:21:04.193Z,101688.94
2022-09-23T06:21:38.399Z,101693.25
2022-09-23T06:22:10.949Z,101683.16
2022-09-23T06:22:42.330Z,101683.16
2022-09-23T06:23:13.726Z,101687.81
2022-09-23T06:23:46.084Z,101692.13
2022-09-23T06:24:22.107Z,101686.31
2022-09-23T06:24:55.202Z,101681.69
2022-09-23T06:25:26.536Z,101682.47
2022-09-23T06:26:02.086Z,101686.44
2022-09-23T06:26:34.597Z,101687.56
2022-09-23T06:27:06.563Z,101677.81
2022-09-23T06:27:38.056Z,101687.22
2022-09-23T06:28:10.859Z,101684.50
2022-09-23T06:28:43.964Z,101684.94
2022-09-23T06:29:15.320Z,101681.00
2022-09-23T06:29:46.713Z,101678.72
2022-09-23T06:30:18.085Z,101687.34
2022-09-23T06:30:50.543Z,101680.31
2022-09-23T06:31:21.902Z,101679.63
2022-09-23T06:31:53.458Z,101675.66
2022-09-23T06:32:25.115Z,101680.41
2022-09-23T06:32:58.055Z,101682.34
2022-09-23T06:33:36.455Z,101680.06
2022-09-23T06:34:13.976Z,101680.50
2022-09-23T06:34:51.557Z,101683.56
2022-09-23T06:35:27.881Z,101675.75
2022-09-23T06:36:00.852Z,101673.03
2022-09-23T06:36:42.403Z,101678.13
2022-09-23T06:37:19.949Z,101676.66
2022-09-23T06:37:53.093Z,101669.28
2022-09-23T06:38:25.840Z,101670.41
2022-09-23T06:38:57.298Z,101672.75
2022-09-23T06:39:30.006Z,101668.84
2022-09-23T06:40:01.763Z,101672.88
2022-09-23T06:40:33.230Z,101670.94
2022-09-23T06:41:04.954Z,101675.69
2022-09-23T06:41:36.381Z,101664.25
2022-09-23T06:42:07.923Z,101677.28
2022-09-23T06:42:39.598Z,101675.25
2022-09-23T06:43:10.961Z,101676.94
2022-09-23T06:43:42.410Z,101675.78
2022-09-23T06:44:15.056Z,101678.97
2022-09-23T06:44:46.551Z,101682.81
2022-09-23T06:45:18.029Z,101686.34
2022-09-23T06:45:53.632Z,101678.16
2022-09-23T06:46:25.538Z,101677.03
2022-09-23T06:46:57.071Z,101680.19
2022-09-23T06:47:29.130Z,101672.38
2022-09-23T06:48:00.963Z,101676.34
2022-09-23T06:48:35.920Z,101671.69
2022-09-23T06:49:07.452Z,101673.69
2022-09-23T06:49:38.818Z,101673.69